Time;durP1;ratioP1;P1;durP2;ratioP2;P2;SDS_P1;SDS_P2;PMS_P1;PMS_P2;Temp;Humidity;BMP_temperature;BMP_pressure;BME280_temperature;BME280_humidity;BME280_pressure;Samples;Min_cycle;Max_cycle;Signal;HPM_P1;HPM_P2
2023/03/01 00:05:43;;;;;;;6.65;5.57;;;;;;;20.55;35.57;101374.84;21065839;28;20040;-66
2023/03/01 00:15:44;;;;;;;9.77;8.77;;;;;;;20.53;35.58;101377.91;21062198;28;20044;-66
2023/03/01 00:25:46;;;;;;;12.60;10.18;;;;;;;20.51;35.82;101382.03;21071178;28;20048;-67
2023/03/01 00:35:47;;;;;;;10.75;9.65;;;;;;;20.51;35.66;101409.84;21070393;28;20044;-65
2023/03/01 00:45:49;;;;;;;11.27;10.10;;;;;;;20.49;35.68;101400.94;21079903;28;20052;-65
2023/03/01 00:55:50;;;;;;;11.23;10.13;;;;;;;20.50;35.71;101397.06;21073334;28;20051;-64
2023/03/01 01:05:54;;;;;;;10.95;9.80;;;;;;;20.48;36.01;101382.56;21070217;28;20344;-65
2023/03/01 01:16:01;;;;;;;10.35;9.18;;;;;;;20.36;36.18;101381.91;21070985;28;20101;-62
2023/03/01 01:26:07;;;;;;;16.15;8.90;;;;;;;20.47;35.96;101437.34;21057526;28;20450;-63
2023/03/01 01:36:12;;;;;;;13.55;8.18;;;;;;;20.49;36.23;101451.81;21071864;28;20547;-64
2023/03/01 01:46:31;;;;;;;8.95;7.05;;;;;;;20.27;36.61;101449.09;21068985;28;20097;-65
2023/03/01 01:56:33;;;;;;;8.33;6.20;;;;;;;20.54;36.61;101503.84;21073708;28;20051;-65
2023/03/01 02:06:41;;;;;;;7.80;5.47;;;;;;;20.56;36.21;101499.69;21061398;28;20286;-64
2023/03/01 02:16:46;;;;;;;5.43;4.70;;;;;;;20.65;36.52;101511.16;21057253;28;20101;-64
2023/03/01 02:26:54;;;;;;;6.95;4.85;;;;;;;20.69;36.75;101533.72;21058764;28;20077;-64
2023/03/01 02:37:12;;;;;;;6.37;4.30;;;;;;;20.72;36.58;101522.91;21058362;28;20057;-65
2023/03/01 02:47:13;;;;;;;7.50;4.05;;;;;;;20.78;36.73;101538.53;21056823;28;20043;-64
2023/03/01 02:57:15;;;;;;;3.55;3.08;;;;;;;20.86;36.99;101536.38;21064402;28;20056;-65
2023/03/01 03:07:16;;;;;;;4.68;3.20;;;;;;;20.89;36.84;101561.72;21058223;28;20487;-65
2023/03/01 03:17:18;;;;;;;4.93;3.33;;;;;;;20.96;37.09;101567.91;21063118;28;20047;-66
2023/03/01 03:27:19;;;;;;;6.38;3.05;;;;;;;20.99;36.75;101580.44;21059410;28;20047;-64
2023/03/01 03:47:41;;;;;;;2.90;2.40;;;;;;;20.87;37.19;101577.84;21067395;28;20032;-64
2023/03/01 03:57:43;;;;;;;3.95;2.75;;;;;;;21.09;37.07;101630.59;21060852;28;20108;-63
2023/03/01 04:07:45;;;;;;;4.78;2.63;;;;;;;21.00;36.92;101607.16;21072364;28;20093;-64
2023/03/01 04:17:46;;;;;;;6.07;3.38;;;;;;;21.19;37.30;101658.53;21066686;28;20036;-64
2023/03/01 04:27:48;;;;;;;3.45;2.33;;;;;;;21.21;37.27;101680.50;21074835;28;20040;-63
2023/03/01 04:37:49;;;;;;;6.00;2.92;;;;;;;21.22;37.57;101705.31;21069613;28;20380;-64
2023/03/01 04:47:53;;;;;;;5.05;2.75;;;;;;;21.23;37.60;101722.84;21066959;28;20036;-64
2023/03/01 04:57:55;;;;;;;6.80;2.50;;;;;;;21.23;37.33;101732.03;21066506;28;20040;-64
2023/03/01 05:08:02;;;;;;;6.95;2.40;;;;;;;21.17;37.33;101721.97;21067610;28;20044;-63
2023/03/01 05:18:03;;;;;;;3.78;2.40;;;;;;;21.24;37.88;101746.78;21064707;28;20093;-65
2023/03/01 05:28:11;;;;;;;4.07;2.47;;;;;;;21.23;37.71;101751.53;21065258;28;20365;-64
2023/03/01 05:38:13;;;;;;;7.20;2.67;;;;;;;21.26;37.40;101761.31;21060774;28;20043;-65
2023/03/01 05:48:19;;;;;;;5.85;2.50;;;;;;;21.25;37.47;101768.78;21052507;28;20039;-63
2023/03/01 05:58:21;;;;;;;3.17;2.47;;;;;;;21.11;37.48;101753.63;21063781;28;20048;-64
2023/03/01 06:08:28;;;;;;;4.50;2.33;;;;;;;21.15;37.30;101763.13;21055450;28;20100;-65
2023/03/01 06:18:29;;;;;;;3.13;2.40;;;;;;;21.30;37.42;101784.72;21051821;28;20044;-64
2023/03/01 06:28:34;;;;;;;6.65;2.58;;;;;;;21.22;37.18;101766.56;21058689;28;20047;-64
2023/03/01 06:38:35;;;;;;;2.55;2.15;;;;;;;21.43;37.30;101794.63;21056035;28;20040;-65
2023/03/01 06:48:37;;;;;;;3.67;2.72;;;;;;;21.49;37.16;101799.16;21061479;28;20097;-64
2023/03/01 06:58:38;;;;;;;4.22;2.45;;;;;;;21.43;36.99;101795.44;21054581;28;20575;-64
2023/03/01 07:08:40;;;;;;;4.05;2.50;;;;;;;21.56;37.21;101789.44;21055936;28;20195;-64
2023/03/01 07:18:41;;;;;;;3.35;2.45;;;;;;;21.61;37.24;101779.47;21058701;28;20048;-65
2023/03/01 07:28:43;;;;;;;3.55;1.92;;;;;;;21.63;36.88;101780.88;21056393;28;20040;-64
2023/03/01 07:38:44;;;;;;;4.78;2.47;;;;;;;21.65;36.80;101773.09;21045878;28;20040;-65
2023/03/01 07:48:46;;;;;;;4.22;3.05;;;;;;;21.65;36.96;101775.88;21069930;28;20102;-66
2023/03/01 07:58:47;;;;;;;6.88;3.42;;;;;;;21.65;37.39;101783.41;21073366;28;20865;-65
2023/03/01 08:08:51;;;;;;;5.65;2.47;;;;;;;21.67;37.03;101784.81;21059611;28;20036;-66
2023/03/01 08:18:55;;;;;;;5.13;2.80;;;;;;;21.49;36.71;101766.56;21081056;28;20498;-65
2023/03/01 08:29:00;;;;;;;4.63;3.20;;;;;;;21.65;36.55;101814.03;21084284;28;20081;-66
2023/03/01 08:39:04;;;;;;;4.35;2.67;;;;;;;21.64;36.50;101823.50;21085104;28;20032;-65
2023/03/01 08:49:07;;;;;;;4.18;2.75;;;;;;;21.58;36.55;101789.22;21085012;28;20051;-66
2023/03/01 08:59:13;;;;;;;3.10;2.50;;;;;;;21.61;36.10;101813.72;21081338;28;20090;-66
2023/03/01 09:09:16;;;;;;;4.03;2.83;;;;;;;21.42;36.14;101792.94;21083855;28;20032;-65
2023/03/01 09:19:20;;;;;;;6.03;3.10;;;;;;;21.44;35.85;101774.88;21079765;28;20051;-66
2023/03/01 09:29:22;;;;;;;4.65;3.00;;;;;;;21.44;36.05;101791.59;21082168;28;20044;-65
2023/03/01 09:39:23;;;;;;;3.25;2.70;;;;;;;21.48;35.80;101819.72;21080094;28;20556;-65
2023/03/01 09:49:31;;;;;;;3.88;2.40;;;;;;;21.45;36.06;101820.28;21078073;28;20044;-65
2023/03/01 09:59:43;;;;;;;2.90;2.23;;;;;;;21.53;35.67;101819.75;21073967;28;20101;-65
2023/03/01 10:09:46;;;;;;;3.22;2.20;;;;;;;21.57;35.58;101823.72;21074490;28;20399;-66
2023/03/01 10:19:47;;;;;;;2.97;2.30;;;;;;;21.67;35.77;101840.53;21023740;28;20052;-65
2023/03/01 10:30:29;;;;;;;3.08;2.40;;;;;;;21.66;35.58;101838.84;21077362;28;20044;-65
2023/03/01 10:40:32;;;;;;;2.10;1.90;;;;;;;21.74;35.52;101827.22;21075443;28;20418;-64
2023/03/01 10:50:46;;;;;;;2.33;2.13;;;;;;;21.75;35.71;101869.84;21068097;28;20040;-66
2023/03/01 11:01:00;;;;;;;2.33;2.13;;;;;;;21.75;35.50;101920.81;21075702;28;20105;-64
2023/03/01 11:11:14;;;;;;;2.40;2.20;;;;;;;21.74;35.46;101921.94;21064659;28;20052;-65
2023/03/01 11:21:16;;;;;;;3.30;2.22;;;;;;;21.73;35.04;101923.03;21081383;28;20032;-66
2023/03/01 11:31:18;;;;;;;2.42;2.22;;;;;;;21.74;35.29;101947.00;21086062;28;20073;-65
2023/03/01 11:41:26;;;;;;;2.75;2.55;;;;;;;21.72;34.79;101959.53;21086696;28;20044;-64
2023/03/01 11:51:36;;;;;;;3.42;2.65;;;;;;;21.72;34.80;101976.25;21089721;28;20048;-65
2023/03/01 12:02:15;;;;;;;3.72;2.63;;;;;;;21.63;35.27;102012.06;21024839;28;20036;-65
2023/03/01 12:12:50;;;;;;;3.23;2.70;;;;;;;21.43;34.86;102028.50;21055354;28;20036;-65
2023/03/01 12:23:16;;;;;;;3.55;2.42;;;;;;;21.69;34.94;102089.03;21075615;28;20044;-65
2023/03/01 12:33:23;;;;;;;5.93;2.55;;;;;;;21.69;34.88;102089.03;21080051;28;20028;-65
2023/03/01 12:43:30;;;;;;;3.40;2.40;;;;;;;21.69;35.25;102105.75;21086079;28;20028;-65
2023/03/01 12:53:46;;;;;;;4.00;2.80;;;;;;;21.54;35.21;102063.78;21075582;28;20093;-67
2023/03/01 13:04:12;;;;;;;7.03;3.03;;;;;;;21.69;35.57;102061.19;21058918;28;20043;-67
2023/03/01 13:14:25;;;;;;;4.65;2.25;;;;;;;21.77;35.22;102052.38;21077107;28;20040;-67
2023/03/01 13:24:41;;;;;;;3.22;2.35;;;;;;;21.83;35.38;102083.91;21080394;28;20051;-66
2023/03/01 13:34:45;;;;;;;5.70;2.25;;;;;;;21.92;35.30;102095.44;21079209;28;20051;-66
2023/03/01 13:44:55;;;;;;;4.10;2.30;;;;;;;21.88;35.26;102085.91;21078307;28;20556;-68
2023/03/01 13:54:57;;;;;;;5.45;2.92;;;;;;;21.95;34.84;102078.22;21077870;28;20482;-67
2023/03/01 14:05:00;;;;;;;3.72;2.50;;;;;;;22.04;34.91;102076.66;21071658;28;20093;-68
2023/03/01 14:15:22;;;;;;;5.32;2.33;;;;;;;22.09;34.85;102076.72;21076367;28;20102;-66
2023/03/01 14:25:32;;;;;;;3.38;2.17;;;;;;;22.10;34.85;102072.81;21075013;28;20051;-68
2023/03/01 14:35:36;;;;;;;3.20;2.15;;;;;;;22.13;34.96;102046.38;21076524;28;20044;-68
2023/03/01 14:45:37;;;;;;;4.43;1.90;;;;;;;22.12;34.72;102053.91;21071725;28;20040;-68
2023/03/01 14:55:44;;;;;;;3.17;1.88;;;;;;;22.16;34.47;102027.19;21075515;28;20059;-68
2023/03/01 15:05:46;;;;;;;2.25;1.60;;;;;;;22.20;34.73;102011.59;21076585;28;20430;-68
2023/03/01 15:15:51;;;;;;;5.85;2.45;;;;;;;22.22;34.86;101964.81;21074055;28;20048;-67
2023/03/01 15:25:57;;;;;;;3.15;2.10;;;;;;;22.14;34.96;101940.19;21073555;28;20093;-67
2023/03/01 15:36:23;;;;;;;3.10;1.83;;;;;;;22.27;34.68;101958.44;21068684;28;20101;-67
2023/03/01 15:46:37;;;;;;;3.50;2.22;;;;;;;22.09;34.89;101915.03;21071610;28;20074;-68
2023/03/01 15:56:44;;;;;;;2.80;1.83;;;;;;;22.30;34.89;101939.19;21074525;28;20453;-67
2023/03/01 16:06:55;;;;;;;2.30;2.10;;;;;;;22.32;34.73;101930.59;21081643;28;20044;-67
2023/03/01 16:16:59;;;;;;;2.30;2.00;;;;;;;22.31;34.88;101921.38;21085491;28;20090;-66
2023/03/01 16:27:00;;;;;;;2.92;1.48;;;;;;;22.31;34.48;101910.22;21083974;28;20044;-67
2023/03/01 16:37:02;;;;;;;2.72;1.73;;;;;;;22.30;34.59;101877.00;21082696;28;20120;-67
2023/03/01 16:47:09;;;;;;;2.10;1.45;;;;;;;22.34;34.72;101883.75;21051331;28;20036;-66
2023/03/01 16:57:14;;;;;;;1.73;1.45;;;;;;;22.27;34.67;101867.25;21085596;28;20549;-68
2023/03/01 17:07:15;;;;;;;2.20;1.50;;;;;;;22.33;34.26;101866.19;21084186;28;20036;-69
2023/03/01 17:17:17;;;;;;;2.80;1.70;;;;;;;22.32;34.33;101858.94;21079735;28;20044;-67
2023/03/01 17:27:18;;;;;;;3.60;1.40;;;;;;;22.34;34.10;101872.59;21082755;28;20032;-67
2023/03/01 17:37:19;;;;;;;2.38;1.15;;;;;;;22.31;34.07;101862.81;21078422;28;20419;-67
2023/03/01 17:47:24;;;;;;;2.88;1.60;;;;;;;22.28;34.53;101829.91;21078823;28;20048;-66
2023/03/01 17:57:31;;;;;;;1.73;1.60;;;;;;;22.31;34.71;101793.13;21078518;28;20040;-68
2023/03/01 18:07:32;;;;;;;12.18;2.10;;;;;;;22.36;35.14;101771.91;21076867;28;20048;-68
2023/03/01 18:17:33;;;;;;;7.07;1.80;;;;;;;22.38;36.78;101734.31;21074044;28;20032;-68
2023/03/01 18:27:35;;;;;;;6.35;2.42;;;;;;;22.43;36.98;101723.16;21071154;28;20074;-67
2023/03/01 18:37:37;;;;;;;5.93;1.77;;;;;;;22.45;37.70;101686.63;21068246;28;20478;-68
2023/03/01 18:47:38;;;;;;;5.22;1.73;;;;;;;22.47;37.47;101670.47;21071993;28;20248;-68
2023/03/01 18:57:42;;;;;;;1.92;1.70;;;;;;;22.45;36.91;101642.88;21067969;28;20085;-67
2023/03/01 19:07:44;;;;;;;6.20;1.92;;;;;;;22.39;36.69;101602.13;21073397;28;20063;-67
2023/03/01 19:17:45;;;;;;;3.53;1.85;;;;;;;22.40;36.74;101559.16;21074983;28;20453;-67
2023/03/01 19:27:47;;;;;;;2.75;1.50;;;;;;;22.36;36.25;101541.34;21073678;28;20062;-67
2023/03/01 19:37:49;;;;;;;3.78;1.65;;;;;;;22.25;36.11;101509.81;21082289;28;20479;-66
2023/03/01 19:47:51;;;;;;;2.50;1.45;;;;;;;22.37;35.76;101508.72;21087194;28;20406;-66
2023/03/01 19:57:55;;;;;;;1.77;1.40;;;;;;;22.32;35.11;101479.72;21088898;28;20556;-66
2023/03/01 20:07:57;;;;;;;1.88;1.52;;;;;;;22.31;35.90;101488.34;21087080;28;20032;-65
2023/03/01 20:17:59;;;;;;;4.15;1.90;;;;;;;22.32;35.83;101445.44;21084582;28;20104;-66
2023/03/01 20:28:00;;;;;;;4.18;1.60;;;;;;;22.30;35.49;101420.59;21084934;28;20180;-67
2023/03/01 20:38:03;;;;;;;4.88;1.52;;;;;;;22.27;35.27;101417.53;21085748;28;20406;-65
2023/03/01 20:48:04;;;;;;;3.30;1.80;;;;;;;22.22;35.29;101423.97;21085045;28;20028;-65
2023/03/01 20:58:06;;;;;;;2.60;1.70;;;;;;;22.11;35.42;101421.41;21085379;28;20091;-66
2023/03/01 21:08:07;;;;;;;1.33;1.23;;;;;;;22.21;35.83;101450.13;21084230;28;20078;-68
2023/03/01 21:18:08;;;;;;;2.38;1.40;;;;;;;22.21;35.47;101438.97;21080927;28;20047;-65
2023/03/01 21:28:10;;;;;;;2.70;1.27;;;;;;;22.16;35.74;101419.47;21082866;28;20036;-67
2023/03/01 21:38:11;;;;;;;2.35;1.90;;;;;;;22.15;35.69;101417.81;21082454;28;20024;-67
2023/03/01 21:48:15;;;;;;;50.63;3.25;;;;;;;22.10;35.79;101414.97;21071588;28;20043;-67
2023/03/01 21:58:18;;;;;;;2.70;1.55;;;;;;;21.90;36.65;101412.16;21072073;28;20056;-69
2023/03/01 22:08:19;;;;;;;3.90;1.70;;;;;;;21.65;36.86;101422.16;21078603;28;20048;-68
2023/03/01 22:18:21;;;;;;;4.97;1.85;;;;;;;21.66;37.15;101446.09;21072673;28;20105;-68
2023/03/01 22:28:22;;;;;;;6.40;1.48;;;;;;;21.61;37.14;101434.94;21074030;28;20062;-67
2023/03/01 22:38:23;;;;;;;3.08;1.30;;;;;;;21.56;37.28;101432.16;21074619;28;20047;-67
2023/03/01 22:48:25;;;;;;;4.97;1.80;;;;;;;21.51;37.52;101446.88;21069734;28;20040;-67
2023/03/01 22:58:29;;;;;;;4.20;1.60;;;;;;;21.48;36.97;101447.41;21039281;28;20098;-67
2023/03/01 23:08:31;;;;;;;2.97;1.80;;;;;;;21.43;37.24;101460.50;21044031;28;20033;-68
2023/03/01 23:18:32;;;;;;;3.20;1.67;;;;;;;21.38;37.41;101468.81;21084194;28;20105;-66
2023/03/01 23:28:39;;;;;;;38.13;4.72;;;;;;;21.30;37.28;101462.66;21083198;28;21459;-67
2023/03/01 23:38:40;;;;;;;12.07;2.03;;;;;;;21.42;37.50;101475.53;21073928;28;20044;-66
2023/03/01 23:48:43;;;;;;;11.00;2.30;;;;;;;21.40;37.58;101466.63;21080973;28;20673;-67
2023/03/01 23:58:45;;;;;;;9.80;1.80;;;;;;;21.37;37.43;101454.06;21077883;28;20392;-67
